Time;durP1;ratioP1;P1;durP2;ratioP2;P2;SDS_P1;SDS_P2;PMS_P1;PMS_P2;Temp;Humidity;BMP_temperature;BMP_pressure;BME280_temperature;BME280_humidity;BME280_pressure;Samples;Min_cycle;Max_cycle;Signal;HPM_P1;HPM_P2
2021/01/18 00:00:04;;;;;;;41.17;18.48;;;4.60;99.90;;;;;;5183456;23;20054;-93
2021/01/18 00:02:40;;;;;;;43.78;18.55;;;4.70;99.90;;;;;;4950135;28;20026;-93
2021/01/18 00:05:07;;;;;;;43.38;20.10;;;4.70;99.90;;;;;;4971633;28;20111;-94
2021/01/18 00:07:48;;;;;;;38.25;18.08;;;4.60;99.90;;;;;;4963787;29;20043;-93
2021/01/18 00:10:17;;;;;;;49.03;22.52;;;4.10;99.90;;;;;;4923529;29;20054;-93
2021/01/18 00:12:44;;;;;;;41.75;19.42;;;4.60;99.90;;;;;;4903390;29;20036;-93
2021/01/18 00:15:13;;;;;;;38.33;18.77;;;4.60;99.90;;;;;;4904540;29;20047;-94
2021/01/18 00:17:40;;;;;;;67.13;22.52;;;4.00;99.90;;;;;;4879553;29;20045;-94
2021/01/18 00:20:06;;;;;;;43.42;16.90;;;4.50;99.90;;;;;;4874035;29;20052;-93
2021/01/18 00:22:35;;;;;;;35.25;16.60;;;4.60;99.90;;;;;;4895410;29;20089;-92
2021/01/18 00:25:02;;;;;;;41.08;16.90;;;4.60;99.90;;;;;;4887985;29;20069;-94
2021/01/18 00:27:27;;;;;;;30.52;16.33;;;4.00;99.90;;;;;;4896780;29;20041;-94
2021/01/18 00:29:54;;;;;;;33.40;15.30;;;4.60;99.90;;;;;;4900454;29;20882;-93
2021/01/18 00:32:23;;;;;;;33.20;15.52;;;4.60;99.90;;;;;;4876089;29;20070;-94
2021/01/18 00:34:48;;;;;;;44.05;18.63;;;4.50;99.90;;;;;;4865322;29;20034;-95
2021/01/18 00:37:16;;;;;;;46.05;19.20;;;4.90;99.90;;;;;;4866088;29;20118;-91
2021/01/18 00:39:43;;;;;;;37.85;17.67;;;4.80;99.90;;;;;;4866946;29;20062;-94
2021/01/18 00:42:10;;;;;;;45.60;17.85;;;5.00;99.90;;;;;;4900564;29;20025;-92
2021/01/18 00:44:35;;;;;;;39.95;19.30;;;4.90;99.90;;;;;;4903702;29;20026;-93
2021/01/18 00:47:02;;;;;;;38.00;18.35;;;4.50;99.90;;;;;;4903886;29;20028;-93
2021/01/18 00:49:28;;;;;;;37.88;19.13;;;4.60;99.90;;;;;;4892805;29;20036;-94
2021/01/18 00:51:53;;;;;;;44.90;18.80;;;4.80;99.90;;;;;;4906674;29;20021;-94
2021/01/18 00:54:19;;;;;;;41.65;20.00;;;3.90;99.90;;;;;;4906795;29;20044;-94
2021/01/18 00:56:50;;;;;;;44.55;18.38;;;5.20;99.90;;;;;;4898226;29;20255;-91
2021/01/18 00:59:15;;;;;;;36.80;18.02;;;4.50;99.90;;;;;;4885655;29;20063;-91
2021/01/18 01:01:42;;;;;;;47.00;18.38;;;4.50;99.90;;;;;;4893064;29;20045;-92
2021/01/18 01:04:09;;;;;;;45.38;17.98;;;4.50;99.90;;;;;;4907307;29;20041;-94
2021/01/18 01:06:36;;;;;;;38.00;19.10;;;4.50;99.90;;;;;;4885423;29;20041;-94
2021/01/18 01:09:06;;;;;;;35.08;16.92;;;4.40;99.90;;;;;;4864133;29;20080;-92
2021/01/18 01:11:33;;;;;;;40.00;17.27;;;4.50;99.90;;;;;;4880363;29;20033;-92
2021/01/18 01:14:00;;;;;;;39.75;19.00;;;4.50;99.90;;;;;;4869216;29;20088;-95
2021/01/18 01:16:26;;;;;;;42.03;17.80;;;4.50;99.90;;;;;;4869245;29;20049;-95
2021/01/18 01:18:53;;;;;;;35.10;17.50;;;4.40;99.90;;;;;;4865768;29;20034;-93
2021/01/18 01:21:20;;;;;;;34.80;17.58;;;3.70;99.90;;;;;;4864845;29;20146;-94
2021/01/18 01:23:48;;;;;;;36.28;19.35;;;4.40;99.90;;;;;;4886213;29;20116;-93
2021/01/18 01:26:15;;;;;;;36.35;17.92;;;4.40;99.90;;;;;;4901538;29;20040;-93
2021/01/18 01:28:41;;;;;;;39.13;17.45;;;4.40;99.90;;;;;;4887281;29;20025;-95
2021/01/18 01:31:07;;;;;;;37.40;17.45;;;5.30;99.90;;;;;;4918590;29;20081;-95
2021/01/18 01:33:32;;;;;;;38.55;19.20;;;4.40;99.90;;;;;;4886927;29;20028;-95
2021/01/18 01:36:01;;;;;;;39.50;17.95;;;3.00;99.90;;;;;;4886983;29;20021;-95
2021/01/18 01:38:26;;;;;;;42.13;19.23;;;4.30;99.90;;;;;;4887667;29;20525;-94
2021/01/18 01:40:53;;;;;;;42.05;16.65;;;4.20;99.90;;;;;;4896779;29;20037;-93
2021/01/18 01:43:19;;;;;;;36.42;18.70;;;3.70;99.90;;;;;;4896085;29;20037;-93
2021/01/18 01:45:45;;;;;;;34.08;18.40;;;4.20;99.90;;;;;;4914903;29;20104;-92
2021/01/18 01:48:11;;;;;;;45.05;19.70;;;4.20;99.90;;;;;;4919171;29;20025;-96
2021/01/18 01:50:42;;;;;;;35.53;18.80;;;4.30;99.90;;;;;;4930592;29;20076;-95
2021/01/18 01:53:23;;;;;;;34.10;18.45;;;4.10;99.90;;;;;;4938091;29;20059;-96
2021/01/18 01:55:50;;;;;;;38.90;20.10;;;4.20;99.90;;;;;;4931118;29;20041;-93
2021/01/18 01:58:16;;;;;;;44.33;18.73;;;4.10;99.90;;;;;;4920977;29;20040;-94
2021/01/18 02:00:44;;;;;;;44.88;20.23;;;2.90;99.90;;;;;;4920767;29;20044;-96
2021/01/18 02:03:17;;;;;;;43.33;21.17;;;3.20;99.90;;;;;;4904848;29;20025;-95
2021/01/18 02:05:44;;;;;;;41.05;20.13;;;4.10;99.90;;;;;;4917086;29;20024;-95
2021/01/18 02:08:28;;;;;;;42.85;20.80;;;4.10;99.90;;;;;;4935275;29;20103;-96
2021/01/18 02:10:57;;;;;;;39.85;20.60;;;4.20;99.90;;;;;;4939039;29;20036;-93
2021/01/18 02:13:32;;;;;;;42.05;20.50;;;4.10;99.90;;;;;;4920081;29;20437;-96
2021/01/18 02:16:07;;;;;;;37.85;21.30;;;4.20;99.90;;;;;;4924017;29;20030;-95
2021/01/18 02:18:59;;;;;;;38.30;20.45;;;4.10;99.90;;;;;;4933904;29;20171;-94
2021/01/18 02:21:59;;;;;;;37.47;20.15;;;4.20;99.90;;;;;;4925497;29;20159;-94
2021/01/18 02:25:06;;;;;;;39.83;20.00;;;4.20;99.90;;;;;;4957910;29;20055;-94
2021/01/18 02:27:52;;;;;;;36.38;18.95;;;3.60;99.90;;;;;;4944542;29;20023;-96
2021/01/18 02:30:54;;;;;;;37.20;19.17;;;4.10;99.90;;;;;;4923997;29;20035;-96
2021/01/18 02:33:41;;;;;;;36.88;18.60;;;4.10;99.90;;;;;;4931506;29;20028;-95
2021/01/18 02:36:45;;;;;;;51.47;19.33;;;4.00;99.90;;;;;;4927354;29;20028;-94
2021/01/18 02:39:43;;;;;;;40.13;18.30;;;4.00;99.90;;;;;;4960989;29;20027;-93
2021/01/18 02:42:32;;;;;;;35.30;17.63;;;4.00;99.90;;;;;;4944590;29;20118;-94
2021/01/18 02:45:00;;;;;;;30.95;15.68;;;4.20;99.90;;;;;;4930192;29;20066;-94
2021/01/18 02:47:32;;;;;;;37.30;15.65;;;4.10;99.90;;;;;;4929230;29;20039;-94
2021/01/18 02:50:01;;;;;;;25.52;13.80;;;4.00;99.90;;;;;;4921822;29;20037;-93
2021/01/18 02:52:29;;;;;;;33.53;15.23;;;4.00;99.90;;;;;;4932093;29;20032;-95
2021/01/18 02:54:57;;;;;;;29.27;13.95;;;4.00;99.90;;;;;;4933118;29;20158;-94
2021/01/18 02:57:24;;;;;;;30.60;13.23;;;4.00;99.90;;;;;;4904754;29;20049;-94
2021/01/18 02:59:50;;;;;;;36.47;13.23;;;4.00;99.90;;;;;;4890715;29;20514;-95
2021/01/18 03:02:54;;;;;;;25.35;11.68;;;4.00;99.90;;;;;;4906551;29;20032;-95
2021/01/18 03:05:43;;;;;;;28.55;12.43;;;4.00;99.90;;;;;;4905753;29;20106;-94
2021/01/18 03:08:20;;;;;;;22.60;11.57;;;3.90;99.90;;;;;;4888937;29;20101;-95
2021/01/18 03:11:01;;;;;;;19.42;11.23;;;3.90;99.90;;;;;;4889808;29;20051;-96
2021/01/18 03:13:37;;;;;;;25.77;10.85;;;3.90;99.90;;;;;;4909918;29;20044;-92
2021/01/18 03:16:33;;;;;;;25.10;11.65;;;3.70;99.90;;;;;;4900970;29;20045;-93
2021/01/18 03:19:02;;;;;;;25.02;11.77;;;3.70;99.90;;;;;;4921485;29;20048;-91
2021/01/18 03:21:35;;;;;;;28.10;11.95;;;3.70;99.90;;;;;;4936224;29;20087;-91
2021/01/18 03:24:01;;;;;;;27.42;13.70;;;3.70;99.90;;;;;;4949074;28;20058;-92
2021/01/18 03:26:29;;;;;;;24.02;11.38;;;3.70;99.90;;;;;;4948394;29;20023;-93
2021/01/18 03:28:58;;;;;;;26.70;11.48;;;3.70;99.90;;;;;;4947679;28;20016;-93
2021/01/18 03:31:28;;;;;;;28.20;13.65;;;3.70;99.90;;;;;;4954076;29;20038;-93
2021/01/18 03:33:54;;;;;;;23.90;11.25;;;3.70;99.90;;;;;;4951333;29;20031;-94
2021/01/18 03:36:21;;;;;;;24.35;12.80;;;3.70;99.90;;;;;;4959971;29;20031;-93
2021/01/18 03:38:47;;;;;;;30.60;13.43;;;4.30;99.90;;;;;;4954447;29;20036;-93
2021/01/18 03:41:13;;;;;;;24.52;12.35;;;3.70;99.90;;;;;;4939646;29;20038;-92
2021/01/18 03:43:39;;;;;;;21.38;12.43;;;3.70;99.90;;;;;;4951971;29;20098;-92
2021/01/18 03:46:08;;;;;;;28.40;13.07;;;3.70;99.90;;;;;;4960452;29;20389;-91
2021/01/18 03:48:33;;;;;;;28.90;12.55;;;3.70;99.90;;;;;;4947902;29;20027;-94
2021/01/18 03:50:59;;;;;;;29.92;14.32;;;4.00;99.90;;;;;;4963545;28;20015;-93
2021/01/18 03:53:25;;;;;;;29.38;12.70;;;3.70;99.90;;;;;;4965663;28;20035;-93
2021/01/18 03:55:51;;;;;;;32.85;12.90;;;3.90;99.90;;;;;;4965395;28;20018;-93
2021/01/18 03:58:18;;;;;;;27.17;12.23;;;3.80;99.90;;;;;;4982053;28;20031;-93
2021/01/18 04:00:44;;;;;;;22.15;12.88;;;3.80;99.90;;;;;;4965386;28;20027;-94
2021/01/18 04:03:10;;;;;;;28.27;12.35;;;4.70;99.90;;;;;;4965618;29;20024;-94
2021/01/18 04:05:35;;;;;;;28.92;10.70;;;4.20;99.90;;;;;;4965335;28;20015;-92
2021/01/18 04:08:03;;;;;;;25.00;12.85;;;3.90;99.90;;;;;;4958556;29;20035;-93
2021/01/18 04:10:29;;;;;;;24.02;12.80;;;3.90;99.90;;;;;;4942375;29;20028;-94
2021/01/18 04:12:57;;;;;;;30.17;12.32;;;4.00;99.90;;;;;;4955030;29;20015;-92
2021/01/18 04:15:24;;;;;;;25.00;13.00;;;4.80;99.90;;;;;;4957239;29;20023;-92
2021/01/18 04:17:54;;;;;;;26.98;12.98;;;3.90;99.90;;;;;;4940164;29;20044;-93
2021/01/18 04:20:20;;;;;;;26.10;12.70;;;3.90;99.90;;;;;;4919164;29;20128;-93
2021/01/18 04:22:58;;;;;;;38.63;14.65;;;3.80;99.90;;;;;;4938611;29;20027;-93
2021/01/18 04:25:28;;;;;;;27.90;14.70;;;3.80;99.90;;;;;;4915308;29;20039;-94
2021/01/18 04:28:02;;;;;;;25.20;13.95;;;3.80;99.90;;;;;;4929555;29;20032;-93
2021/01/18 04:30:34;;;;;;;29.75;15.10;;;3.80;99.90;;;;;;4932894;29;20044;-94
2021/01/18 04:33:08;;;;;;;28.42;13.93;;;3.80;99.90;;;;;;4907749;29;20036;-93
2021/01/18 04:35:37;;;;;;;33.88;15.10;;;3.80;99.90;;;;;;4922979;29;20028;-92
2021/01/18 04:38:05;;;;;;;27.88;14.32;;;3.80;99.90;;;;;;4937872;29;20062;-92
2021/01/18 04:40:32;;;;;;;30.00;15.18;;;3.80;99.90;;;;;;4919035;29;20631;-92
2021/01/18 04:43:01;;;;;;;28.00;14.43;;;3.40;99.90;;;;;;4934661;29;20480;-94
2021/01/18 04:45:28;;;;;;;29.30;14.38;;;3.80;99.90;;;;;;4937521;29;20024;-94
2021/01/18 04:47:56;;;;;;;28.90;14.85;;;4.80;99.90;;;;;;4925494;29;20036;-93
2021/01/18 04:50:28;;;;;;;34.50;13.75;;;3.80;99.90;;;;;;4908983;29;20470;-93
2021/01/18 04:52:56;;;;;;;37.58;16.15;;;5.00;99.90;;;;;;4942356;29;20031;-93
2021/01/18 04:56:02;;;;;;;29.70;14.50;;;4.00;99.90;;;;;;4942942;29;20042;-92
2021/01/18 04:58:31;;;;;;;33.53;13.95;;;2.80;99.90;;;;;;4953330;29;20047;-94
2021/01/18 05:01:03;;;;;;;31.48;14.95;;;4.00;99.90;;;;;;4961108;28;20039;-95
2021/01/18 05:03:33;;;;;;;33.08;16.73;;;3.90;99.90;;;;;;4932841;29;20028;-93
2021/01/18 05:06:05;;;;;;;27.20;13.33;;;3.90;99.90;;;;;;4942885;29;20024;-94
2021/01/18 05:08:59;;;;;;;29.33;15.27;;;4.00;99.90;;;;;;4937730;29;20263;-95
2021/01/18 05:11:24;;;;;;;30.13;15.35;;;3.90;99.90;;;;;;4953621;29;20027;-95
2021/01/18 05:13:50;;;;;;;32.33;14.68;;;5.00;99.90;;;;;;4952902;29;20041;-95
2021/01/18 05:16:17;;;;;;;28.45;14.35;;;3.90;99.90;;;;;;4968526;29;20449;-95
2021/01/18 05:18:48;;;;;;;32.55;15.38;;;3.80;99.90;;;;;;4930528;29;20047;-94
2021/01/18 05:21:19;;;;;;;31.05;14.60;;;3.80;99.90;;;;;;4950137;29;20034;-94
2021/01/18 05:23:49;;;;;;;;;;;3.90;99.90;;;;;;4956200;29;20066;-93
2021/01/18 05:26:28;;;;;;;30.45;14.70;;;3.90;99.90;;;;;;4973575;29;20004;-96
2021/01/18 05:28:55;;;;;;;29.67;14.00;;;4.00;99.90;;;;;;4928333;29;20039;-88
2021/01/18 05:31:33;;;;;;;31.30;15.68;;;3.90;99.90;;;;;;4942876;29;20027;-91
2021/01/18 05:34:37;;;;;;;31.17;15.40;;;3.90;99.90;;;;;;4946208;29;20042;-94
2021/01/18 05:37:07;;;;;;;25.58;14.30;;;3.90;99.90;;;;;;4894812;29;20049;-90
2021/01/18 05:39:33;;;;;;;29.88;14.35;;;3.90;99.90;;;;;;4955666;28;20028;-92
2021/01/18 05:42:00;;;;;;;36.75;15.68;;;4.00;99.90;;;;;;4925534;29;20603;-93
2021/01/18 05:44:35;;;;;;;31.48;14.65;;;4.20;99.90;;;;;;4961075;29;20098;-92
2021/01/18 05:47:06;;;;;;;33.15;15.75;;;3.90;99.90;;;;;;4950213;29;20023;-92
2021/01/18 05:49:42;;;;;;;31.63;14.02;;;4.00;99.90;;;;;;4945169;29;20031;-95
2021/01/18 05:52:30;;;;;;;25.88;13.43;;;4.70;99.90;;;;;;4946801;29;20034;-94
2021/01/18 05:55:25;;;;;;;29.33;13.57;;;3.90;99.90;;;;;;4926576;29;20031;-93
2021/01/18 05:57:57;;;;;;;28.63;13.32;;;3.90;99.90;;;;;;4943823;29;20352;-91
2021/01/18 06:00:36;;;;;;;28.63;13.95;;;3.90;99.90;;;;;;4944949;29;20043;-91
2021/01/18 06:03:09;;;;;;;28.40;14.55;;;3.90;99.90;;;;;;4948143;29;20039;-93
2021/01/18 06:06:19;;;;;;;;;;;;;;;;;;;;;
2021/01/18 06:08:53;;;;;;;29.88;15.38;;;3.50;99.90;;;;;;4946806;29;20122;-93
2021/01/18 06:11:26;;;;;;;37.55;13.88;;;4.10;99.90;;;;;;4942334;29;20031;-92
2021/01/18 06:13:58;;;;;;;34.97;13.95;;;4.00;99.90;;;;;;4929417;29;20082;-92
2021/01/18 06:16:25;;;;;;;33.55;15.23;;;4.10;99.90;;;;;;4936788;29;20031;-92
2021/01/18 06:19:02;;;;;;;28.52;13.88;;;4.00;99.90;;;;;;4958149;28;20117;-91
2021/01/18 06:21:40;;;;;;;36.08;13.80;;;4.00;99.90;;;;;;4948454;29;20098;-92
2021/01/18 06:24:35;;;;;;;34.55;15.95;;;4.10;99.90;;;;;;4926714;29;20042;-92
2021/01/18 06:27:05;;;;;;;29.13;14.27;;;4.00;99.90;;;;;;4902286;29;20045;-92
2021/01/18 06:29:39;;;;;;;36.28;14.90;;;4.10;99.90;;;;;;4905662;29;20032;-93
2021/01/18 06:32:07;;;;;;;31.63;13.68;;;4.00;99.90;;;;;;4939377;29;20032;-92
2021/01/18 06:34:36;;;;;;;38.63;15.20;;;4.00;99.90;;;;;;4942304;29;20013;-91
2021/01/18 06:37:02;;;;;;;31.80;14.48;;;4.00;99.90;;;;;;4941282;29;20028;-92
2021/01/18 06:39:30;;;;;;;38.85;15.77;;;4.00;99.90;;;;;;4934632;29;20096;-92
2021/01/18 06:42:05;;;;;;;37.15;14.05;;;4.00;99.90;;;;;;4926411;29;20028;-91
2021/01/18 06:44:44;;;;;;;37.47;16.02;;;4.10;99.90;;;;;;4912524;29;20044;-93
2021/01/18 06:47:34;;;;;;;28.13;15.23;;;4.10;99.90;;;;;;4908662;29;20040;-91
2021/01/18 06:50:03;;;;;;;28.20;14.27;;;4.00;99.90;;;;;;4905570;29;20096;-96
2021/01/18 06:52:34;;;;;;;32.22;15.30;;;4.10;99.90;;;;;;4894585;29;20163;-96
2021/01/18 06:55:12;;;;;;;28.52;16.05;;;4.00;99.90;;;;;;4910642;29;20032;-95
2021/01/18 07:01:02;;;;;;;30.65;13.90;;;4.10;99.90;;;;;;4913584;29;20046;-94
2021/01/18 07:03:42;;;;;;;29.52;14.88;;;4.20;99.90;;;;;;4929247;29;20032;-95
2021/01/18 07:06:26;;;;;;;32.90;13.77;;;4.00;99.90;;;;;;4939319;29;20040;-96
2021/01/18 07:08:57;;;;;;;33.83;15.38;;;4.10;99.90;;;;;;4942398;29;20032;-96
2021/01/18 07:11:27;;;;;;;31.52;15.40;;;4.00;99.90;;;;;;4935931;29;20032;-96
2021/01/18 07:13:56;;;;;;;30.65;16.33;;;3.40;99.90;;;;;;4934313;29;20130;-96
2021/01/18 07:16:25;;;;;;;41.10;16.13;;;4.10;99.90;;;;;;4928335;29;20028;-92
2021/01/18 07:18:56;;;;;;;34.30;16.20;;;4.00;99.90;;;;;;4919404;29;20040;-92
2021/01/18 07:21:26;;;;;;;31.08;14.55;;;4.10;99.90;;;;;;4939964;29;20075;-91
2021/01/18 07:24:14;;;;;;;31.27;15.13;;;4.10;99.90;;;;;;4941290;29;20104;-92
2021/01/18 07:26:53;;;;;;;34.20;15.40;;;4.20;99.90;;;;;;5085108;23;20059;-91
2021/01/18 07:29:26;;;;;;;31.67;13.60;;;4.30;99.90;;;;;;4958557;29;20028;-91
2021/01/18 07:31:58;;;;;;;34.35;14.95;;;4.20;99.90;;;;;;4929409;29;20039;-92
2021/01/18 07:34:24;;;;;;;;;;;4.20;99.90;;;;;;4927025;29;20028;-91
2021/01/18 07:36:51;;;;;;;33.15;14.30;;;4.20;99.90;;;;;;4947731;29;19899;-93
2021/01/18 07:39:28;;;;;;;34.50;14.57;;;4.20;99.90;;;;;;4949732;29;20027;-93
2021/01/18 07:41:55;;;;;;;32.40;13.82;;;3.70;99.90;;;;;;4939629;29;20031;-95
2021/01/18 07:49:59;;;;;;;38.53;15.00;;;4.30;99.90;;;;;;5240629;23;20050;-94
2021/01/18 08:01:14;;;;;;;30.38;14.40;;;4.50;99.90;;;;;;4924890;29;20023;-93
2021/01/18 08:43:00;;;;;;;27.85;15.05;;;5.00;99.90;;;;;;5432408;23;20070;-95
2021/01/18 08:45:55;;;;;;;32.58;14.48;;;5.10;99.90;;;;;;4955446;28;20389;-95
2021/01/18 08:48:29;;;;;;;34.05;16.55;;;5.20;99.90;;;;;;4984883;28;20068;-96
2021/01/18 08:50:58;;;;;;;44.85;17.92;;;5.30;99.90;;;;;;4950114;29;20059;-92
2021/01/18 10:18:42;;;;;;;19.05;10.23;;;6.80;99.90;;;;;;5254018;23;20067;-94
2021/01/18 10:33:01;;;;;;;17.85;8.70;;;6.70;99.90;;;;;;5811235;23;20055;-93
2021/01/18 10:35:37;;;;;;;21.73;8.52;;;6.80;99.90;;;;;;4959194;28;20032;-95
2021/01/18 10:38:24;;;;;;;17.85;7.47;;;6.80;99.90;;;;;;4950817;29;20031;-95
2021/01/18 10:41:23;;;;;;;19.17;7.25;;;6.70;99.90;;;;;;4974629;29;20023;-93
2021/01/18 10:55:04;;;;;;;16.50;6.55;;;6.80;99.90;;;;;;5283474;23;20077;-96
2021/01/18 11:00:33;;;;;;;;;;;;;;;;;;;;;
2021/01/18 11:03:03;;;;;;;15.15;5.50;;;6.80;99.90;;;;;;4895289;29;20033;-96
2021/01/18 11:35:22;;;;;;;16.35;5.22;;;6.90;99.90;;;;;;5645816;23;20030;-85
2021/01/18 12:13:54;;;;;;;;;;;;;;;;;;;;;
2021/01/18 12:25:11;;;;;;;9.63;4.68;;;8.20;99.90;;;;;;5274160;23;20052;-95
2021/01/18 12:58:43;;;;;;;12.70;4.05;;;8.40;99.90;;;;;;5045796;23;20075;-96
2021/01/18 13:01:09;;;;;;;13.68;4.53;;;8.60;99.90;;;;;;5301772;23;20037;-93
2021/01/18 13:03:44;;;;;;;14.80;4.70;;;8.60;99.90;;;;;;4934378;29;20075;-91
2021/01/18 13:06:19;;;;;;;13.00;3.92;;;8.70;99.90;;;;;;5003097;23;20055;-91
2021/01/18 13:11:23;;;;;;;11.63;2.90;;;8.70;99.90;;;;;;5048350;23;20065;-95
2021/01/18 13:17:15;;;;;;;10.50;3.50;;;8.60;99.90;;;;;;4946285;28;20062;-94
2021/01/18 13:19:58;;;;;;;16.70;5.05;;;8.50;99.90;;;;;;5067826;23;20062;-94
2021/01/18 13:22:32;;;;;;;11.43;3.70;;;8.50;99.90;;;;;;4931577;29;20031;-95
2021/01/18 13:24:59;;;;;;;14.88;4.20;;;8.30;99.90;;;;;;4923284;29;20074;-95
2021/01/18 13:27:36;;;;;;;12.93;4.32;;;8.20;99.90;;;;;;4902972;29;20109;-94
2021/01/18 13:30:14;;;;;;;15.20;4.05;;;8.20;99.90;;;;;;4915780;29;20028;-92
2021/01/18 13:32:49;;;;;;;13.68;3.90;;;8.10;99.90;;;;;;4914676;29;20036;-96
2021/01/18 13:35:36;;;;;;;14.02;4.70;;;8.00;99.90;;;;;;5036682;23;20066;-96
2021/01/18 13:38:13;;;;;;;12.40;4.63;;;7.90;99.90;;;;;;4954248;29;20040;-94
2021/01/18 13:40:42;;;;;;;8.10;3.28;;;7.90;99.90;;;;;;4982530;23;20073;-95
2021/01/18 13:43:19;;;;;;;16.98;4.57;;;7.90;99.90;;;;;;5025321;23;20054;-95
2021/01/18 13:49:19;;;;;;;12.15;3.92;;;7.80;99.90;;;;;;5881238;23;20418;-88
2021/01/18 16:01:20;;;;;;;16.45;6.32;;;6.60;99.90;;;;;;5883254;23;20104;-93
2021/01/18 16:11:36;;;;;;;8.15;4.38;;;6.40;99.90;;;;;;5446461;23;20618;-87
2021/01/18 16:16:54;;;;;;;12.23;4.35;;;6.30;99.90;;;;;;5491328;23;20253;-95
2021/01/18 16:19:23;;;;;;;9.15;4.63;;;6.30;99.90;;;;;;5731078;23;21730;-93
2021/01/18 16:24:27;;;;;;;14.35;6.15;;;6.30;99.90;;;;;;5437304;23;20276;-93
2021/01/18 16:27:14;;;;;;;10.82;5.00;;;6.30;99.90;;;;;;4960561;28;20136;-94
2021/01/18 16:32:25;;;;;;;15.52;5.75;;;6.20;99.90;;;;;;5349611;23;20067;-92
2021/01/18 16:34:54;;;;;;;15.47;6.00;;;6.20;99.90;;;;;;4955452;29;20513;-93
2021/01/18 16:37:28;;;;;;;15.43;5.95;;;6.20;99.90;;;;;;4959689;29;20038;-93
2021/01/18 16:40:05;;;;;;;15.95;5.65;;;6.00;99.90;;;;;;4975887;28;20062;-91
2021/01/18 16:42:37;;;;;;;11.63;4.97;;;6.20;99.90;;;;;;4943415;29;20019;-95
2021/01/18 16:45:18;;;;;;;17.90;6.65;;;6.20;99.90;;;;;;4956248;29;20099;-93
2021/01/18 16:48:22;;;;;;;12.85;6.07;;;6.20;99.90;;;;;;4967130;29;20046;-93
2021/01/18 16:53:38;;;;;;;14.45;7.10;;;6.30;99.90;;;;;;5124824;23;20043;-94
2021/01/18 16:56:30;;;;;;;17.75;6.47;;;6.80;99.90;;;;;;4957927;29;20063;-95
2021/01/18 17:38:04;;;;;;;10.48;4.53;;;5.80;99.90;;;;;;5827546;23;20056;-93
2021/01/18 19:16:47;;;;;;;14.50;7.13;;;5.60;99.90;;;;;;6017089;23;21538;31
2021/01/18 19:19:13;;;;;;;13.07;7.03;;;5.60;99.90;;;;;;4903361;29;20053;-95
2021/01/18 19:21:47;;;;;;;11.18;6.40;;;6.30;99.90;;;;;;4892250;29;20033;-94
2021/01/18 19:24:13;;;;;;;17.30;7.20;;;5.60;99.90;;;;;;4886542;29;20104;-94
2021/01/18 19:26:45;;;;;;;18.77;7.43;;;5.60;99.90;;;;;;4891102;29;20033;-95
2021/01/18 19:29:11;;;;;;;17.50;8.48;;;5.10;99.90;;;;;;4890392;29;20025;-93
2021/01/18 19:31:39;;;;;;;13.95;6.72;;;5.60;99.90;;;;;;4877139;29;20089;-96
2021/01/18 19:34:49;;;;;;;15.32;8.20;;;5.60;99.90;;;;;;4879297;29;20576;-95
2021/01/18 19:37:17;;;;;;;11.45;6.07;;;5.60;99.90;;;;;;4862332;29;20066;-93
2021/01/18 19:50:09;;;;;;;15.32;6.88;;;5.50;99.90;;;;;;5117209;23;20055;-94
2021/01/18 19:52:41;;;;;;;15.48;7.03;;;5.50;99.90;;;;;;4981121;28;20019;-93
2021/01/18 19:57:46;;;;;;;13.63;7.82;;;5.60;99.90;;;;;;5283622;23;20043;-95
2021/01/18 20:00:12;;;;;;;14.02;7.13;;;5.60;99.90;;;;;;5314166;23;20035;-93
2021/01/18 20:05:23;;;;;;;12.38;7.20;;;5.90;99.90;;;;;;5481919;23;20023;-96
2021/01/18 20:44:16;;;;;;;16.90;7.90;;;5.30;99.90;;;;;;5088102;23;20026;-89
2021/01/18 20:47:12;;;;;;;14.50;7.35;;;5.30;99.90;;;;;;4934466;29;20115;-95
2021/01/18 20:49:54;;;;;;;17.17;7.88;;;5.30;99.90;;;;;;4903620;29;20040;-95
2021/01/18 20:52:23;;;;;;;10.73;6.97;;;5.30;99.90;;;;;;4917160;29;20058;-96
2021/01/18 20:57:30;;;;;;;12.80;6.88;;;5.40;99.90;;;;;;5051248;23;20059;-93
2021/01/18 21:00:21;;;;;;;9.57;6.00;;;5.40;99.90;;;;;;5208875;23;20051;-96
2021/01/18 21:02:47;;;;;;;9.45;5.53;;;5.40;99.90;;;;;;5075155;23;20055;-96
2021/01/18 21:05:14;;;;;;;11.07;5.53;;;6.70;99.90;;;;;;5463232;23;21136;-93
2021/01/18 21:07:47;;;;;;;13.95;5.70;;;5.40;99.90;;;;;;4927025;29;20032;-93
2021/01/18 21:10:13;;;;;;;8.88;5.28;;;5.40;99.90;;;;;;4921559;29;20052;-93
2021/01/18 21:12:38;;;;;;;9.55;4.95;;;5.40;99.90;;;;;;4921261;29;20069;-95
2021/01/18 21:15:15;;;;;;;7.15;4.72;;;5.40;99.90;;;;;;4919203;29;20092;-92
2021/01/18 21:17:41;;;;;;;6.65;4.57;;;5.40;99.90;;;;;;4872911;29;20032;-93
2021/01/18 21:20:07;;;;;;;7.05;4.57;;;4.60;99.90;;;;;;4932674;29;20024;-95
2021/01/18 21:22:46;;;;;;;8.27;5.10;;;5.20;99.90;;;;;;5066394;23;20051;-92
2021/01/18 21:25:37;;;;;;;7.20;4.32;;;5.40;99.90;;;;;;5328711;23;20048;-94
2021/01/18 21:28:08;;;;;;;8.13;4.07;;;5.70;99.90;;;;;;4902831;29;20028;-96
2021/01/18 21:30:35;;;;;;;6.47;4.13;;;5.00;99.90;;;;;;5051929;23;20130;-94
2021/01/18 21:35:41;;;;;;;4.05;3.05;;;5.40;99.90;;;;;;5197770;23;20505;-95
2021/01/18 21:38:12;;;;;;;5.78;4.00;;;5.40;99.90;;;;;;4950562;29;20125;-90
2021/01/18 21:40:39;;;;;;;8.35;3.97;;;5.40;99.90;;;;;;4933915;29;20051;-91
2021/01/18 21:43:05;;;;;;;8.32;4.43;;;5.40;99.90;;;;;;4932431;28;20085;-94
2021/01/18 21:45:34;;;;;;;5.43;3.83;;;5.40;99.90;;;;;;4957684;29;20020;-94
2021/01/18 21:48:10;;;;;;;8.43;4.05;;;5.40;99.90;;;;;;4967156;29;20522;-94
2021/01/18 21:50:51;;;;;;;5.45;3.55;;;5.90;99.90;;;;;;4954828;29;20057;-95
2021/01/18 21:55:57;;;;;;;9.52;4.38;;;5.50;99.90;;;;;;5219275;23;20047;-94
2021/01/18 22:01:07;;;;;;;8.07;4.30;;;5.40;99.90;;;;;;5011184;23;20063;-93
2021/01/18 22:03:35;;;;;;;5.57;4.22;;;5.40;99.90;;;;;;4955242;29;20059;-93
2021/01/18 22:06:05;;;;;;;8.90;4.68;;;5.30;99.90;;;;;;4943598;29;20043;-93
2021/01/18 23:09:16;;;;;;;6.60;4.32;;;4.80;99.90;;;;;;593141;23;20333;-87
2021/01/18 23:11:51;;;;;;;8.02;4.40;;;5.60;99.90;;;;;;4952673;29;20047;-96
2021/01/18 23:14:17;;;;;;;9.05;4.55;;;4.90;99.90;;;;;;4942899;29;20022;-96
2021/01/18 23:16:45;;;;;;;5.88;4.65;;;5.40;99.90;;;;;;5211771;23;20104;-90
2021/01/18 23:19:12;;;;;;;6.82;4.47;;;4.90;99.90;;;;;;4943987;29;20032;-95
2021/01/18 23:21:52;;;;;;;6.30;4.30;;;4.10;99.90;;;;;;4927195;29;20020;-95
2021/01/18 23:24:21;;;;;;;8.30;4.45;;;4.90;99.90;;;;;;5020011;23;20020;-85
2021/01/18 23:26:50;;;;;;;8.90;4.43;;;4.80;99.90;;;;;;4965171;29;20030;-95
2021/01/18 23:29:16;;;;;;;5.82;4.38;;;4.80;99.90;;;;;;4966265;29;20027;-95
2021/01/18 23:37:53;;;;;;;6.20;4.70;;;4.90;99.90;;;;;;5304468;23;20062;-96
2021/01/18 23:40:22;;;;;;;8.48;5.03;;;4.70;99.90;;;;;;4949001;29;20110;-95
2021/01/18 23:42:49;;;;;;;6.97;4.03;;;4.90;99.90;;;;;;4944532;29;20031;-93
2021/01/18 23:45:15;;;;;;;8.13;5.00;;;4.90;99.90;;;;;;4948907;28;20035;-93
2021/01/18 23:47:53;;;;;;;8.20;5.53;;;5.40;99.90;;;;;;4945794;29;20263;-95
2021/01/18 23:50:23;;;;;;;7.18;5.40;;;5.00;99.90;;;;;;4956454;29;20034;-96
2021/01/18 23:52:51;;;;;;;7.30;5.05;;;6.00;99.90;;;;;;4965614;29;20048;-96
2021/01/18 23:55:19;;;;;;;11.05;6.07;;;4.00;99.90;;;;;;4976250;29;20019;-96
2021/01/18 23:57:51;;;;;;;9.02;5.07;;;4.70;99.90;;;;;;4972712;29;20031;-96
